Time;durP1;ratioP1;P1;durP2;ratioP2;P2;SDS_P1;SDS_P2;PMS_P1;PMS_P2;Temp;Humidity;BMP_temperature;BMP_pressure;BME280_temperature;BME280_humidity;BME280_pressure;Samples;Min_cycle;Max_cycle;Signal;HPM_P1;HPM_P2
2022/10/02 00:02:09;;;;;;;0.35;0.30;;;;;;;;;;7399415;19;20014;-84
2022/10/02 00:05:02;;;;;;;0.10;0.10;;;;;;;;;;7402634;19;20011;-86
2022/10/02 00:07:36;;;;;;;1.45;0.10;;;;;;;;;;7397082;19;20014;-84
2022/10/02 00:10:28;;;;;;;0.35;0.30;;;;;;;;;;7399208;19;20012;-85
2022/10/02 00:12:57;;;;;;;0.20;0.20;;;;;;;;;;7397123;19;19990;-85
2022/10/02 00:15:28;;;;;;;0.40;0.40;;;;;;;;;;7395629;19;20460;-85
2022/10/02 00:18:19;;;;;;;0.40;0.30;;;;;;;;;;7396520;19;20035;-85
2022/10/02 00:21:03;;;;;;;0.43;0.22;;;;;;;;;;7398362;19;20181;-86
2022/10/02 00:23:37;;;;;;;1.52;0.50;;;;;;;;;;7397893;19;20007;-86
2022/10/02 00:26:12;;;;;;;0.52;0.30;;;;;;;;;;7398657;19;20010;-85
2022/10/02 00:28:53;;;;;;;1.98;0.40;;;;;;;;;;7395304;19;20017;-84
2022/10/02 00:31:22;;;;;;;0.73;0.30;;;;;;;;;;7399845;19;20048;-84
2022/10/02 00:33:59;;;;;;;2.92;0.70;;;;;;;;;;7399137;19;20007;-85
2022/10/02 00:36:41;;;;;;;0.65;0.30;;;;;;;;;;7397838;19;20414;-84
2022/10/02 00:39:29;;;;;;;1.95;0.28;;;;;;;;;;7398607;19;20428;-84
2022/10/02 00:42:23;;;;;;;0.20;0.20;;;;;;;;;;7400170;19;20062;-85
2022/10/02 00:44:56;;;;;;;0.10;0.10;;;;;;;;;;7401435;19;20021;-87
2022/10/02 00:48:02;;;;;;;0.70;0.10;;;;;;;;;;7394427;19;19995;-85
2022/10/02 00:51:08;;;;;;;0.95;0.50;;;;;;;;;;7399783;19;20002;-84
2022/10/02 00:53:58;;;;;;;0.63;0.10;;;;;;;;;;7395223;19;19991;-85
2022/10/02 00:56:46;;;;;;;0.30;0.20;;;;;;;;;;7393370;19;19998;-85
2022/10/02 00:59:15;;;;;;;0.15;0.10;;;;;;;;;;7397584;19;20076;-85
2022/10/02 01:02:01;;;;;;;2.42;0.50;;;;;;;;;;7397332;19;20010;-86
2022/10/02 01:04:33;;;;;;;0.55;0.10;;;;;;;;;;7395900;19;20017;-85
2022/10/02 01:07:00;;;;;;;0.52;0.30;;;;;;;;;;7395647;19;20516;-86
2022/10/02 01:09:26;;;;;;;2.63;0.35;;;;;;;;;;7395603;19;20655;-85
2022/10/02 01:11:52;;;;;;;0.60;0.25;;;;;;;;;;7395621;19;20702;-85
2022/10/02 01:14:18;;;;;;;5.80;0.32;;;;;;;;;;7395755;19;20018;-85
2022/10/02 01:16:44;;;;;;;0.40;0.20;;;;;;;;;;7393336;19;19995;-85
2022/10/02 01:19:25;;;;;;;0.85;0.20;;;;;;;;;;7395503;19;20587;-85
2022/10/02 01:22:02;;;;;;;0.60;0.20;;;;;;;;;;7395639;19;20013;-85
2022/10/02 01:24:35;;;;;;;1.70;0.30;;;;;;;;;;7394959;19;20025;-86
2022/10/02 01:27:01;;;;;;;0.85;0.47;;;;;;;;;;7393575;19;20045;-86
2022/10/02 01:29:27;;;;;;;0.95;0.45;;;;;;;;;;7395147;19;20022;-86
2022/10/02 01:31:53;;;;;;;0.65;0.20;;;;;;;;;;7397329;19;20070;-86
2022/10/02 01:34:19;;;;;;;0.70;0.17;;;;;;;;;;7392830;19;20006;-85
2022/10/02 01:36:48;;;;;;;0.22;0.20;;;;;;;;;;7394537;19;20003;-86
2022/10/02 01:39:16;;;;;;;0.68;0.20;;;;;;;;;;7392684;19;20029;-86
2022/10/02 01:41:44;;;;;;;0.98;0.38;;;;;;;;;;7396315;19;20479;-85
2022/10/02 01:44:11;;;;;;;2.40;0.40;;;;;;;;;;7397545;19;20058;-87
2022/10/02 01:47:27;;;;;;;1.08;0.32;;;;;;;;;;7396525;19;20033;-86
2022/10/02 01:50:21;;;;;;;0.38;0.20;;;;;;;;;;7393352;19;20035;-86
2022/10/02 01:53:41;;;;;;;0.63;0.25;;;;;;;;;;7394233;19;19999;-86
2022/10/02 01:56:30;;;;;;;0.85;0.30;;;;;;;;;;7394976;19;20017;-86
2022/10/02 02:02:50;;;;;;;1.77;0.60;;;;;;;;;;7396093;19;19994;-86
2022/10/02 02:06:05;;;;;;;0.95;0.35;;;;;;;;;;7387944;19;20003;-86
2022/10/02 02:08:35;;;;;;;0.82;0.25;;;;;;;;;;7394034;19;20516;-85
2022/10/02 02:11:38;;;;;;;1.30;0.30;;;;;;;;;;7395251;19;20014;-86
2022/10/02 02:17:47;;;;;;;2.50;0.32;;;;;;;;;;7394513;19;20033;-86
2022/10/02 02:20:23;;;;;;;1.00;0.25;;;;;;;;;;7393038;19;20003;-86
2022/10/02 02:23:16;;;;;;;1.40;0.30;;;;;;;;;;7394244;19;20003;-85
2022/10/02 02:25:51;;;;;;;4.28;0.25;;;;;;;;;;7393035;19;20436;-85
2022/10/02 02:28:20;;;;;;;1.45;0.73;;;;;;;;;;7391549;19;20010;-86
2022/10/02 02:31:24;;;;;;;1.05;0.30;;;;;;;;;;7395536;19;19999;-85
2022/10/02 02:33:59;;;;;;;1.10;0.20;;;;;;;;;;7401017;19;20010;-86
2022/10/02 02:40:16;;;;;;;0.35;0.20;;;;;;;;;;7399384;19;20038;-85
2022/10/02 02:43:45;;;;;;;0.50;0.45;;;;;;;;;;7396867;19;20010;-86
2022/10/02 02:50:07;;;;;;;0.47;0.20;;;;;;;;;;7398834;19;20473;-86
2022/10/02 02:56:29;;;;;;;0.20;0.20;;;;;;;;;;7395514;19;20364;-86
2022/10/02 02:59:27;;;;;;;0.75;0.45;;;;;;;;;;7397690;19;20046;-86
2022/10/02 03:01:52;;;;;;;1.95;0.30;;;;;;;;;;7396485;19;20005;-86
2022/10/02 03:04:18;;;;;;;1.95;0.20;;;;;;;;;;7397289;19;20019;-86
2022/10/02 03:07:27;;;;;;;1.77;0.20;;;;;;;;;;7399027;19;20002;-86
2022/10/02 03:10:08;;;;;;;0.73;0.40;;;;;;;;;;7393964;19;20353;-86
2022/10/02 03:12:56;;;;;;;0.73;0.32;;;;;;;;;;7399484;19;19999;-87
2022/10/02 03:15:44;;;;;;;0.50;0.20;;;;;;;;;;7397055;19;20130;-86
2022/10/02 03:18:31;;;;;;;1.35;0.43;;;;;;;;;;7394415;19;19998;-86
2022/10/02 03:21:35;;;;;;;0.25;0.20;;;;;;;;;;7394595;19;20108;-86
2022/10/02 03:24:54;;;;;;;1.55;0.28;;;;;;;;;;7397633;19;20010;-86
2022/10/02 03:27:42;;;;;;;3.38;0.32;;;;;;;;;;7394031;19;20066;-87
2022/10/02 03:30:10;;;;;;;0.90;0.52;;;;;;;;;;7395502;19;20844;-86
2022/10/02 03:32:37;;;;;;;2.97;0.60;;;;;;;;;;7396961;19;20397;-85
2022/10/02 03:35:18;;;;;;;1.25;0.38;;;;;;;;;;7396771;19;20009;-86
2022/10/02 03:37:48;;;;;;;2.10;0.40;;;;;;;;;;7395469;19;19995;-86
2022/10/02 03:40:13;;;;;;;0.22;0.20;;;;;;;;;;7398039;19;20011;-86
2022/10/02 03:42:39;;;;;;;0.60;0.17;;;;;;;;;;7395022;19;19999;-87
2022/10/02 03:53:55;;;;;;;1.02;0.35;;;;;;;;;;7393239;19;20033;-86
2022/10/02 03:56:41;;;;;;;2.20;0.30;;;;;;;;;;7393282;19;20022;-86
2022/10/02 04:03:17;;;;;;;2.25;1.05;;;;;;;;;;7394915;19;20460;-86
2022/10/02 04:12:00;;;;;;;1.38;0.30;;;;;;;;;;7399360;19;19989;-86
2022/10/02 04:21:53;;;;;;;0.20;0.20;;;;;;;;;;7392275;19;20023;-85
2022/10/02 04:28:28;;;;;;;1.85;0.40;;;;;;;;;;7395512;19;20021;-85
2022/10/02 04:31:47;;;;;;;4.18;0.50;;;;;;;;;;7393810;19;20021;-85
2022/10/02 04:34:55;;;;;;;;;;;;;;;;;;;;;
2022/10/02 04:38:00;;;;;;;0.22;0.20;;;;;;;;;;7389427;19;20344;-85
2022/10/02 04:41:12;;;;;;;1.73;0.35;;;;;;;;;;7391818;19;20086;-85
2022/10/02 04:44:35;;;;;;;;;;;;;;;;;;;;;
2022/10/02 04:58:01;;;;;;;1.15;0.28;;;;;;;;;;7391580;19;20055;-85
2022/10/02 05:07:34;;;;;;;3.40;0.50;;;;;;;;;;7387454;19;20500;-86
2022/10/02 05:10:08;;;;;;;1.80;0.60;;;;;;;;;;7388966;19;20018;-85
2022/10/02 05:19:41;;;;;;;1.17;0.35;;;;;;;;;;7388338;19;19994;-86
2022/10/02 05:22:25;;;;;;;2.30;0.38;;;;;;;;;;7388864;19;20035;-85
2022/10/02 05:25:28;;;;;;;0.30;0.30;;;;;;;;;;7388567;19;20022;-85
2022/10/02 05:32:28;;;;;;;0.82;0.52;;;;;;;;;;7389605;19;20013;-86
2022/10/02 05:52:57;;;;;;;4.40;0.93;;;;;;;;;;7389422;19;19999;-88
2022/10/02 05:55:38;;;;;;;4.40;1.15;;;;;;;;;;7387612;19;20023;-85
2022/10/02 06:05:10;;;;;;;3.35;1.30;;;;;;;;;;7390051;19;20011;-88
2022/10/02 06:08:02;;;;;;;3.38;1.50;;;;;;;;;;7397775;19;20023;-87
2022/10/02 06:11:06;;;;;;;3.55;0.88;;;;;;;;;;7398437;19;20017;-88
2022/10/02 06:14:31;;;;;;;;;;;;;;;;;;;;;
2022/10/02 06:17:40;;;;;;;2.13;1.00;;;;;;;;;;7390102;19;20034;-88
2022/10/02 06:20:44;;;;;;;1.67;0.80;;;;;;;;;;7395493;19;20007;-88
2022/10/02 06:23:40;;;;;;;1.42;0.93;;;;;;;;;;7395371;19;20015;-87
2022/10/02 06:47:38;;;;;;;2.13;0.57;;;;;;;;;;7395611;19;19997;-87
2022/10/02 06:53:46;;;;;;;1.55;0.60;;;;;;;;;;7397104;19;20044;-86
2022/10/02 06:56:45;;;;;;;1.75;0.30;;;;;;;;;;7393974;19;20094;-86
2022/10/02 06:59:54;;;;;;;4.70;0.60;;;;;;;;;;7396149;19;20018;-86
2022/10/02 07:24:07;;;;;;;2.42;0.68;;;;;;;;;;7423377;19;20018;-86
2022/10/02 07:33:53;;;;;;;3.97;0.93;;;;;;;;;;7418417;19;20003;-87
2022/10/02 07:36:42;;;;;;;1.05;0.63;;;;;;;;;;7417400;19;20018;-86
2022/10/02 07:39:28;;;;;;;3.40;0.68;;;;;;;;;;7416532;19;20015;-85
2022/10/02 07:42:00;;;;;;;1.25;0.63;;;;;;;;;;7416764;19;20013;-86
2022/10/02 07:45:06;;;;;;;3.70;0.65;;;;;;;;;;7416894;19;20050;-85
2022/10/02 07:47:53;;;;;;;;;;;;;;;;;;7415318;19;21482;-85
2022/10/02 07:50:49;;;;;;;5.03;0.95;;;;;;;;;;7415404;19;20315;-85
2022/10/02 07:53:28;;;;;;;1.92;1.33;;;;;;;;;;7417977;19;19998;-84
2022/10/02 07:56:54;;;;;;;3.30;0.93;;;;;;;;;;7426907;19;20060;-85
2022/10/02 08:02:25;;;;;;;1.67;0.73;;;;;;;;;;7428169;19;20001;-86
2022/10/02 08:05:30;;;;;;;2.95;1.20;;;;;;;;;;7426723;19;20010;-86
2022/10/02 08:08:03;;;;;;;2.35;0.73;;;;;;;;;;7420313;19;20003;-84
2022/10/02 08:14:10;;;;;;;4.10;1.30;;;;;;;;;;7404291;19;20131;-84
2022/10/02 08:43:54;;;;;;;;;;;;;;;;;;;;;
2022/10/02 08:54:15;;;;;;;4.05;1.58;;;;;;;;;;7393213;19;20055;-85
2022/10/02 08:57:36;;;;;;;1.80;1.08;;;;;;;;;;7392804;19;20019;-85
2022/10/02 09:00:36;;;;;;;2.45;1.05;;;;;;;;;;7398040;19;19999;-85
2022/10/02 09:14:01;;;;;;;1.00;0.60;;;;;;;;;;7404230;19;20005;-86
2022/10/02 09:20:04;;;;;;;3.50;0.80;;;;;;;;;;7396889;19;20082;-85
2022/10/02 09:23:44;;;;;;;2.40;0.73;;;;;;;;;;7399185;19;20114;-85
2022/10/02 09:26:55;;;;;;;2.60;0.80;;;;;;;;;;7394908;19;20006;-86
2022/10/02 09:33:26;;;;;;;3.42;0.82;;;;;;;;;;7396713;19;20005;-86
2022/10/02 09:36:12;;;;;;;3.00;1.25;;;;;;;;;;7394912;19;20334;-85
2022/10/02 09:42:05;;;;;;;4.22;1.50;;;;;;;;;;7401504;19;19993;-86
2022/10/02 09:45:16;;;;;;;;;;;;;;;;;;;;;
2022/10/02 09:48:03;;;;;;;2.70;0.73;;;;;;;;;;7396079;19;19998;-86
2022/10/02 09:51:03;;;;;;;2.25;0.70;;;;;;;;;;7393034;19;20493;-86
2022/10/02 09:54:10;;;;;;;1.83;0.60;;;;;;;;;;7397361;19;20010;-86
2022/10/02 09:56:59;;;;;;;3.35;0.90;;;;;;;;;;7397731;19;20006;-85
2022/10/02 10:13:02;;;;;;;2.22;1.10;;;;;;;;;;7400067;19;19988;-86
2022/10/02 10:16:07;;;;;;;2.63;0.90;;;;;;;;;;7397583;19;20333;-86
2022/10/02 10:22:17;;;;;;;2.95;1.10;;;;;;;;;;7397141;19;20014;-86
2022/10/02 11:18:37;;;;;;;1.00;0.80;;;;;;;;;;7393803;19;19910;-87
2022/10/02 11:21:40;;;;;;;4.78;1.33;;;;;;;;;;7398230;19;20014;-87
2022/10/02 11:25:04;;;;;;;;;;;;;;;;;;;;;
2022/10/02 11:28:05;;;;;;;1.33;1.15;;;;;;;;;;7398176;19;20021;-87
2022/10/02 11:31:07;;;;;;;2.08;0.98;;;;;;;;;;7399948;19;20010;-86
2022/10/02 11:34:41;;;;;;;2.50;0.80;;;;;;;;;;7401753;19;20018;-86
2022/10/02 11:37:49;;;;;;;1.35;0.82;;;;;;;;;;7397133;19;20029;-87
2022/10/02 11:47:45;;;;;;;0.80;0.50;;;;;;;;;;7397723;19;20031;-89
2022/10/02 11:57:28;;;;;;;0.30;0.20;;;;;;;;;;7396354;19;20008;-88
2022/10/02 12:04:12;;;;;;;1.45;0.75;;;;;;;;;;7398104;19;20013;-89
2022/10/02 12:07:27;;;;;;;2.70;1.15;;;;;;;;;;7393654;19;20018;-86
2022/10/02 12:47:09;;;;;;;5.38;1.25;;;;;;;;;;7399273;19;19997;-87
2022/10/02 12:49:45;;;;;;;4.20;1.20;;;;;;;;;;7395644;19;20015;-87
2022/10/02 12:52:51;;;;;;;1.98;0.95;;;;;;;;;;7397156;19;20017;-87
2022/10/02 12:56:11;;;;;;;1.80;0.77;;;;;;;;;;7397293;19;20003;-87
2022/10/02 12:59:21;;;;;;;1.20;0.50;;;;;;;;;;7392714;19;19999;-88
2022/10/02 13:03:16;;;;;;;2.17;0.60;;;;;;;;;;7395761;19;20019;-88
2022/10/02 13:06:09;;;;;;;1.08;0.57;;;;;;;;;;7396062;19;20006;-88
2022/10/02 13:26:14;;;;;;;2.60;0.90;;;;;;;;;;7422100;19;19995;-87
2022/10/02 13:29:08;;;;;;;0.95;0.50;;;;;;;;;;7424525;19;20007;-88
2022/10/02 13:31:53;;;;;;;2.70;0.90;;;;;;;;;;7420370;19;20006;-87
2022/10/02 13:41:44;;;;;;;1.05;0.55;;;;;;;;;;7394877;19;19995;-86
2022/10/02 13:45:22;;;;;;;1.02;0.32;;;;;;;;;;7399709;19;20073;-87
2022/10/02 13:48:09;;;;;;;0.55;0.17;;;;;;;;;;7395597;19;20023;-86
2022/10/02 13:50:49;;;;;;;1.38;0.30;;;;;;;;;;7398257;19;20025;-87
2022/10/02 13:53:50;;;;;;;0.40;0.38;;;;;;;;;;7396323;19;20007;-87
2022/10/02 14:00:44;;;;;;;0.10;0.00;;;;;;;;;;7396859;19;20019;-86
2022/10/02 14:17:46;;;;;;;0.30;0.30;;;;;;;;;;7395717;19;20449;-87
2022/10/02 14:20:26;;;;;;;0.20;0.20;;;;;;;;;;7394571;19;20006;-87
2022/10/02 14:23:31;;;;;;;3.90;0.40;;;;;;;;;;7398941;19;20007;-87
2022/10/02 14:26:27;;;;;;;2.95;1.00;;;;;;;;;;7393114;19;20014;-87
2022/10/02 14:35:50;;;;;;;0.47;0.47;;;;;;;;;;7400418;19;20542;-85
2022/10/02 14:39:10;;;;;;;2.50;0.82;;;;;;;;;;7400229;19;19999;-84
2022/10/02 14:41:44;;;;;;;0.88;0.70;;;;;;;;;;7397753;19;20018;-84
2022/10/02 14:57:40;;;;;;;1.10;0.82;;;;;;;;;;7398600;19;20030;-87
2022/10/02 15:00:17;;;;;;;1.30;1.08;;;;;;;;;;7398864;19;20440;-86
2022/10/02 15:02:57;;;;;;;5.85;0.90;;;;;;;;;;7398036;19;20026;-86
2022/10/02 15:07:59;;;;;;;1.77;1.20;;;;;;;;;;7400058;19;20010;-87
2022/10/02 15:10:57;;;;;;;4.25;0.90;;;;;;;;;;7396525;19;21400;-86
2022/10/02 15:14:08;;;;;;;1.30;0.75;;;;;;;;;;7395499;19;20100;-86
2022/10/02 15:20:38;;;;;;;;;;;;;;;;;;;;;
2022/10/02 15:23:45;;;;;;;1.73;0.60;;;;;;;;;;7402089;19;20014;-86
2022/10/02 15:26:37;;;;;;;0.82;0.80;;;;;;;;;;7398101;19;20043;-86
2022/10/02 15:32:21;;;;;;;1.60;0.60;;;;;;;;;;7395962;19;20451;-86
2022/10/02 15:35:17;;;;;;;0.50;0.50;;;;;;;;;;7400804;19;20101;-86
2022/10/02 15:37:54;;;;;;;0.50;0.50;;;;;;;;;;7395253;19;20358;-86
2022/10/02 15:40:44;;;;;;;0.80;0.40;;;;;;;;;;7399591;19;20038;-86
2022/10/02 15:43:15;;;;;;;0.68;0.68;;;;;;;;;;7400315;19;20010;-86
2022/10/02 15:45:58;;;;;;;0.75;0.63;;;;;;;;;;7395596;19;20457;-86
2022/10/02 15:48:39;;;;;;;0.63;0.45;;;;;;;;;;7397403;19;19994;-86
2022/10/02 15:51:54;;;;;;;0.32;0.32;;;;;;;;;;7397783;19;20028;-86
2022/10/02 15:54:59;;;;;;;0.73;0.32;;;;;;;;;;7396440;19;20003;-87
2022/10/02 15:58:00;;;;;;;0.85;0.80;;;;;;;;;;7404390;19;20552;-87
2022/10/02 16:00:28;;;;;;;1.05;0.80;;;;;;;;;;7395404;19;20011;-87
2022/10/02 16:03:35;;;;;;;0.30;0.30;;;;;;;;;;7398530;19;20002;-87
2022/10/02 16:06:25;;;;;;;0.70;0.30;;;;;;;;;;7391704;19;20084;-87
2022/10/02 16:09:18;;;;;;;0.47;0.47;;;;;;;;;;7393629;19;19994;-89
2022/10/02 16:12:44;;;;;;;0.80;0.75;;;;;;;;;;7399814;19;20024;-88
2022/10/02 16:15:55;;;;;;;0.50;0.50;;;;;;;;;;7395389;19;20007;-88
2022/10/02 16:18:49;;;;;;;0.60;0.55;;;;;;;;;;7392247;19;19991;-87
2022/10/02 16:21:27;;;;;;;1.98;1.17;;;;;;;;;;7394352;19;20050;-87
2022/10/02 16:24:18;;;;;;;0.60;0.60;;;;;;;;;;7393395;19;20024;-87
2022/10/02 16:27:01;;;;;;;1.42;1.10;;;;;;;;;;7396119;19;20389;-87
2022/10/02 16:29:41;;;;;;;0.88;0.80;;;;;;;;;;7397368;19;20017;-86
2022/10/02 16:32:20;;;;;;;1.65;1.10;;;;;;;;;;7397625;19;20007;-87
2022/10/02 16:35:17;;;;;;;1.20;0.95;;;;;;;;;;7398441;19;20015;-87
2022/10/02 16:37:45;;;;;;;1.38;0.88;;;;;;;;;;7395382;19;20018;-87
2022/10/02 16:40:41;;;;;;;1.45;1.00;;;;;;;;;;7398599;19;20410;-86
2022/10/02 16:43:41;;;;;;;1.83;0.68;;;;;;;;;;7399167;19;20009;-87
2022/10/02 16:46:49;;;;;;;0.85;0.63;;;;;;;;;;7395881;19;20334;-85
2022/10/02 16:49:41;;;;;;;0.65;0.65;;;;;;;;;;7391014;19;20006;-86
2022/10/02 16:52:22;;;;;;;0.63;0.63;;;;;;;;;;7397302;19;20014;-87
2022/10/02 16:55:07;;;;;;;1.30;1.00;;;;;;;;;;7396171;19;20007;-87
2022/10/02 16:58:00;;;;;;;0.43;0.38;;;;;;;;;;7396690;19;20020;-87
2022/10/02 17:00:29;;;;;;;0.65;0.65;;;;;;;;;;7395775;19;20014;-86
2022/10/02 17:03:18;;;;;;;1.00;0.75;;;;;;;;;;7396186;19;20039;-86
2022/10/02 17:06:02;;;;;;;0.77;0.50;;;;;;;;;;7393048;19;20010;-85
2022/10/02 17:08:33;;;;;;;0.63;0.47;;;;;;;;;;7392924;19;20002;-87
2022/10/02 17:11:15;;;;;;;1.08;0.70;;;;;;;;;;7395874;19;20044;-86
2022/10/02 17:13:48;;;;;;;1.05;0.88;;;;;;;;;;7395040;19;20029;-86
2022/10/02 17:16:17;;;;;;;3.80;1.83;;;;;;;;;;7394272;19;20009;-87
2022/10/02 17:19:14;;;;;;;1.02;0.88;;;;;;;;;;7393418;19;20069;-86
2022/10/02 17:22:33;;;;;;;0.80;0.70;;;;;;;;;;7393604;19;20037;-88
2022/10/02 17:25:26;;;;;;;1.67;1.40;;;;;;;;;;7393226;19;20041;-85
2022/10/02 17:28:00;;;;;;;3.08;2.00;;;;;;;;;;7393040;19;20025;-86
2022/10/02 17:30:29;;;;;;;5.25;2.22;;;;;;;;;;7391977;19;20016;-86
2022/10/02 17:33:14;;;;;;;4.65;2.60;;;;;;;;;;7395871;19;20118;-85
2022/10/02 17:35:46;;;;;;;1.60;0.90;;;;;;;;;;7392819;19;20015;-85
2022/10/02 17:38:14;;;;;;;0.40;0.40;;;;;;;;;;7391806;19;20102;-87
2022/10/02 17:41:17;;;;;;;0.50;0.50;;;;;;;;;;7393404;19;20018;-86
2022/10/02 17:43:57;;;;;;;0.70;0.70;;;;;;;;;;7393961;19;19998;-86
2022/10/02 17:47:11;;;;;;;1.67;1.08;;;;;;;;;;7388782;19;20006;-85
2022/10/02 17:49:39;;;;;;;0.50;0.50;;;;;;;;;;7392269;19;20100;-86
2022/10/02 17:59:15;;;;;;;0.28;0.13;;;;;;;;;;7394815;19;20468;-85
2022/10/02 18:02:18;;;;;;;0.30;0.30;;;;;;;;;;7401502;19;20010;-86
2022/10/02 18:05:11;;;;;;;0.40;0.40;;;;;;;;;;7405007;19;20388;-85
2022/10/02 18:07:59;;;;;;;0.22;0.22;;;;;;;;;;7409444;19;20538;-86
2022/10/02 18:59:00;;;;;;;8.75;1.08;;;;;;;;;;7411832;19;20008;-86
2022/10/02 19:02:21;;;;;;;2.72;0.65;;;;;;;;;;7407803;19;20510;-87
2022/10/02 19:05:54;;;;;;;0.70;0.70;;;;;;;;;;7403484;19;20003;-86
2022/10/02 19:09:17;;;;;;;5.45;1.25;;;;;;;;;;7403578;19;20017;-86
2022/10/02 19:16:05;;;;;;;0.77;0.77;;;;;;;;;;7401702;19;20015;-86
2022/10/02 19:18:48;;;;;;;1.45;0.60;;;;;;;;;;7392993;19;20014;-86
2022/10/02 19:22:08;;;;;;;0.60;0.60;;;;;;;;;;7397931;19;19998;-85
2022/10/02 20:29:59;;;;;;;1.60;0.40;;;;;;;;;;7399296;19;20019;-87
2022/10/02 20:33:13;;;;;;;1.20;0.52;;;;;;;;;;7392669;19;20575;-87
2022/10/02 22:47:54;;;;;;;0.75;0.75;;;;;;;;;;7397009;19;20553;-85
2022/10/02 22:54:00;;;;;;;1.17;1.00;;;;;;;;;;7427664;19;19985;-85
2022/10/02 23:00:47;;;;;;;1.23;0.93;;;;;;;;;;7425812;19;20064;-84
2022/10/02 23:03:43;;;;;;;2.85;1.10;;;;;;;;;;7426581;19;20013;-83
2022/10/02 23:06:21;;;;;;;;;;;;;;;;;;7427575;19;20034;-83
2022/10/02 23:09:14;;;;;;;0.88;0.77;;;;;;;;;;7428622;19;19907;-82
2022/10/02 23:12:17;;;;;;;1.13;0.85;;;;;;;;;;7428252;19;20034;-83
2022/10/02 23:15:25;;;;;;;2.10;1.00;;;;;;;;;;7428351;19;19999;-83
2022/10/02 23:18:15;;;;;;;1.23;0.80;;;;;;;;;;7421082;19;20022;-84
2022/10/02 23:21:16;;;;;;;2.60;1.13;;;;;;;;;;7412387;19;20036;-84
2022/10/02 23:24:10;;;;;;;1.20;1.10;;;;;;;;;;7408555;19;20086;-84
2022/10/02 23:27:07;;;;;;;2.72;1.30;;;;;;;;;;7406408;19;20110;-85
2022/10/02 23:29:55;;;;;;;2.38;1.02;;;;;;;;;;7407796;19;20003;-84
2022/10/02 23:32:55;;;;;;;3.78;1.10;;;;;;;;;;7409102;19;20063;-84
2022/10/02 23:36:25;;;;;;;1.45;1.13;;;;;;;;;;7405314;19;20042;-83
2022/10/02 23:39:06;;;;;;;1.45;1.17;;;;;;;;;;7405926;19;20014;-84
2022/10/02 23:41:51;;;;;;;1.08;0.85;;;;;;;;;;7406614;19;20006;-83
2022/10/02 23:44:19;;;;;;;2.08;1.20;;;;;;;;;;7407553;19;20034;-84
2022/10/02 23:46:50;;;;;;;1.35;1.10;;;;;;;;;;7403013;19;20003;-84
2022/10/02 23:49:36;;;;;;;1.20;1.10;;;;;;;;;;7405839;19;20018;-83
2022/10/02 23:52:36;;;;;;;1.25;1.15;;;;;;;;;;7406657;19;20014;-84
2022/10/02 23:55:41;;;;;;;2.63;1.42;;;;;;;;;;7405938;19;20038;-84
2022/10/02 23:58:31;;;;;;;4.80;1.58;;;;;;;;;;7403588;19;20002;-84
